sensor_id;sensor_type;location;lat;lon;timestamp;pressure;altitude;pressure_sealevel;temperature;humidity
32131;BME280;18639;50.716;7.086;2023-03-23T00:01:13;99339.63;;;13.11;100.00
32131;BME280;18639;50.716;7.086;2023-03-23T00:03:39;99377.31;;;13.15;99.93
32131;BME280;18639;50.716;7.086;2023-03-23T00:06:05;99327.09;;;12.96;98.28
32131;BME280;18639;50.716;7.086;2023-03-23T00:08:36;99381.94;;;13.21;98.57
32131;BME280;18639;50.716;7.086;2023-03-23T00:11:05;99384.13;;;13.16;99.09
32131;BME280;18639;50.716;7.086;2023-03-23T00:13:32;99392.22;;;13.13;99.40
32131;BME280;18639;50.716;7.086;2023-03-23T00:15:58;99386.31;;;13.20;100.00
32131;BME280;18639;50.716;7.086;2023-03-23T00:18:24;99377.56;;;13.21;100.00
32131;BME280;18639;50.716;7.086;2023-03-23T00:20:55;99375.41;;;13.17;100.00
32131;BME280;18639;50.716;7.086;2023-03-23T00:23:24;99358.19;;;13.16;100.00
32131;BME280;18639;50.716;7.086;2023-03-23T00:25:53;99370.75;;;13.20;100.00
32131;BME280;18639;50.716;7.086;2023-03-23T00:28:22;99362.03;;;13.12;100.00
32131;BME280;18639;50.716;7.086;2023-03-23T00:33:22;99344.78;;;13.11;100.00
32131;BME280;18639;50.716;7.086;2023-03-23T00:35:47;99355.59;;;13.16;99.97
32131;BME280;18639;50.716;7.086;2023-03-23T00:38:13;99327.63;;;12.90;100.00
32131;BME280;18639;50.716;7.086;2023-03-23T00:40:39;99360.50;;;13.09;100.00
32131;BME280;18639;50.716;7.086;2023-03-23T00:43:04;99339.09;;;12.97;100.00
32131;BME280;18639;50.716;7.086;2023-03-23T00:45:29;99335.53;;;12.98;100.00
32131;BME280;18639;50.716;7.086;2023-03-23T00:47:55;99341.81;;;13.05;100.00
32131;BME280;18639;50.716;7.086;2023-03-23T00:50:21;99330.09;;;13.01;100.00
32131;BME280;18639;50.716;7.086;2023-03-23T00:52:47;99325.44;;;13.05;98.82
32131;BME280;18639;50.716;7.086;2023-03-23T00:55:14;99353.69;;;13.18;99.57
32131;BME280;18639;50.716;7.086;2023-03-23T00:57:39;99350.94;;;13.09;99.26
32131;BME280;18639;50.716;7.086;2023-03-23T01:00:05;99339.38;;;13.14;98.65
32131;BME280;18639;50.716;7.086;2023-03-23T01:02:35;99323.16;;;12.92;98.50
32131;BME280;18639;50.716;7.086;2023-03-23T01:05:01;99290.13;;;12.85;97.48
32131;BME280;18639;50.716;7.086;2023-03-23T01:07:28;99321.78;;;12.98;97.34
32131;BME280;18639;50.716;7.086;2023-03-23T01:09:56;99333.38;;;13.13;98.06
32131;BME280;18639;50.716;7.086;2023-03-23T01:12:22;99317.50;;;13.06;98.17
32131;BME280;18639;50.716;7.086;2023-03-23T01:14:49;99316.69;;;13.06;99.31
32131;BME280;18639;50.716;7.086;2023-03-23T01:17:15;99320.38;;;13.03;99.52
32131;BME280;18639;50.716;7.086;2023-03-23T01:19:40;99319.72;;;13.01;100.00
32131;BME280;18639;50.716;7.086;2023-03-23T01:22:07;99286.19;;;12.81;99.44
32131;BME280;18639;50.716;7.086;2023-03-23T01:24:32;99290.22;;;12.93;98.88
32131;BME280;18639;50.716;7.086;2023-03-23T01:26:57;99294.19;;;12.97;100.00
32131;BME280;18639;50.716;7.086;2023-03-23T01:29:26;99206.56;;;12.35;99.71
32131;BME280;18639;50.716;7.086;2023-03-23T01:31:52;99302.22;;;13.03;100.00
32131;BME280;18639;50.716;7.086;2023-03-23T01:34:17;99262.16;;;12.79;97.40
32131;BME280;18639;50.716;7.086;2023-03-23T01:36:42;99297.31;;;13.00;97.11
32131;BME280;18639;50.716;7.086;2023-03-23T01:39:08;99305.41;;;12.97;97.89
32131;BME280;18639;50.716;7.086;2023-03-23T01:41:34;99269.81;;;12.80;98.56
32131;BME280;18639;50.716;7.086;2023-03-23T01:44:05;99312.88;;;13.00;99.23
32131;BME280;18639;50.716;7.086;2023-03-23T01:46:35;99326.41;;;12.94;99.38
32131;BME280;18639;50.716;7.086;2023-03-23T01:49:13;99316.03;;;12.94;99.35
32131;BME280;18639;50.716;7.086;2023-03-23T01:51:46;99285.22;;;12.72;98.19
32131;BME280;18639;50.716;7.086;2023-03-23T01:54:15;99322.97;;;12.94;98.22
32131;BME280;18639;50.716;7.086;2023-03-23T01:56:54;99329.00;;;12.94;97.81
32131;BME280;18639;50.716;7.086;2023-03-23T01:59:21;99338.72;;;12.92;98.51
32131;BME280;18639;50.716;7.086;2023-03-23T02:01:48;99314.56;;;12.73;99.08
32131;BME280;18639;50.716;7.086;2023-03-23T02:04:14;99350.03;;;12.91;100.00
32131;BME280;18639;50.716;7.086;2023-03-23T02:06:41;99338.31;;;12.87;99.70
32131;BME280;18639;50.716;7.086;2023-03-23T02:09:07;99314.97;;;12.68;100.00
32131;BME280;18639;50.716;7.086;2023-03-23T02:11:33;99328.75;;;12.78;100.00
32131;BME280;18639;50.716;7.086;2023-03-23T02:13:59;99339.41;;;12.75;100.00
32131;BME280;18639;50.716;7.086;2023-03-23T02:21:46;99334.22;;;12.75;100.00
32131;BME280;18639;50.716;7.086;2023-03-23T02:36:09;99306.38;;;12.58;100.00
32131;BME280;18639;50.716;7.086;2023-03-23T02:41:16;99304.22;;;12.53;100.00
32131;BME280;18639;50.716;7.086;2023-03-23T02:43:45;99306.94;;;12.52;100.00
32131;BME280;18639;50.716;7.086;2023-03-23T02:46:12;99309.66;;;12.60;100.00
32131;BME280;18639;50.716;7.086;2023-03-23T02:48:40;99256.59;;;12.45;100.00
32131;BME280;18639;50.716;7.086;2023-03-23T02:51:07;99198.69;;;11.98;100.00
32131;BME280;18639;50.716;7.086;2023-03-23T02:53:36;99291.25;;;12.53;100.00
32131;BME280;18639;50.716;7.086;2023-03-23T02:56:03;99293.97;;;12.52;100.00
32131;BME280;18639;50.716;7.086;2023-03-23T02:58:30;99306.13;;;12.42;100.00
32131;BME280;18639;50.716;7.086;2023-03-23T03:00:56;99287.00;;;12.23;100.00
32131;BME280;18639;50.716;7.086;2023-03-23T03:03:28;99306.00;;;12.34;100.00
32131;BME280;18639;50.716;7.086;2023-03-23T03:06:07;99291.66;;;12.30;100.00
32131;BME280;18639;50.716;7.086;2023-03-23T03:11:25;99287.00;;;12.04;100.00
32131;BME280;18639;50.716;7.086;2023-03-23T03:14:06;99296.53;;;12.13;100.00
32131;BME280;18639;50.716;7.086;2023-03-23T03:16:38;99274.47;;;12.09;100.00
32131;BME280;18639;50.716;7.086;2023-03-23T03:19:25;99258.22;;;12.07;100.00
32131;BME280;18639;50.716;7.086;2023-03-23T03:21:53;99235.63;;;12.09;100.00
32131;BME280;18639;50.716;7.086;2023-03-23T03:24:20;99228.38;;;12.03;100.00
32131;BME280;18639;50.716;7.086;2023-03-23T03:26:50;99212.97;;;11.92;100.00
32131;BME280;18639;50.716;7.086;2023-03-23T03:29:18;99229.34;;;12.02;100.00
32131;BME280;18639;50.716;7.086;2023-03-23T03:31:45;99203.03;;;11.78;100.00
32131;BME280;18639;50.716;7.086;2023-03-23T03:34:13;99243.94;;;12.03;100.00
32131;BME280;18639;50.716;7.086;2023-03-23T03:36:43;99247.34;;;11.94;100.00
32131;BME280;18639;50.716;7.086;2023-03-23T03:39:11;99274.75;;;12.06;100.00
32131;BME280;18639;50.716;7.086;2023-03-23T03:41:38;99283.03;;;12.00;100.00
32131;BME280;18639;50.716;7.086;2023-03-23T03:44:05;99302.13;;;11.99;100.00
32131;BME280;18639;50.716;7.086;2023-03-23T03:46:30;99320.25;;;11.99;100.00
32131;BME280;18639;50.716;7.086;2023-03-23T03:48:59;99328.13;;;11.98;100.00
32131;BME280;18639;50.716;7.086;2023-03-23T03:51:26;99311.88;;;11.86;100.00
32131;BME280;18639;50.716;7.086;2023-03-23T03:53:51;99320.78;;;11.93;100.00
32131;BME280;18639;50.716;7.086;2023-03-23T03:56:17;99317.94;;;11.96;100.00
32131;BME280;18639;50.716;7.086;2023-03-23T03:58:42;99319.94;;;11.93;100.00
32131;BME280;18639;50.716;7.086;2023-03-23T04:01:09;99328.56;;;12.03;100.00
32131;BME280;18639;50.716;7.086;2023-03-23T04:03:38;99289.56;;;11.85;100.00
32131;BME280;18639;50.716;7.086;2023-03-23T04:06:04;99288.47;;;11.88;100.00
32131;BME280;18639;50.716;7.086;2023-03-23T04:08:30;99298.19;;;12.05;100.00
32131;BME280;18639;50.716;7.086;2023-03-23T04:10:57;99296.41;;;12.05;100.00
32131;BME280;18639;50.716;7.086;2023-03-23T04:13:22;99283.88;;;12.10;100.00
32131;BME280;18639;50.716;7.086;2023-03-23T04:15:48;99286.06;;;12.05;100.00
32131;BME280;18639;50.716;7.086;2023-03-23T04:18:15;99284.00;;;11.99;100.00
32131;BME280;18639;50.716;7.086;2023-03-23T04:20:46;99294.75;;;12.04;100.00
32131;BME280;18639;50.716;7.086;2023-03-23T04:23:14;99290.81;;;12.00;100.00
32131;BME280;18639;50.716;7.086;2023-03-23T04:25:48;99286.88;;;11.96;100.00
32131;BME280;18639;50.716;7.086;2023-03-23T04:28:15;99306.66;;;12.07;100.00
32131;BME280;18639;50.716;7.086;2023-03-23T04:30:42;99311.25;;;12.03;100.00
32131;BME280;18639;50.716;7.086;2023-03-23T04:33:08;99311.41;;;12.02;100.00
32131;BME280;18639;50.716;7.086;2023-03-23T04:35:39;99318.34;;;12.01;100.00
32131;BME280;18639;50.716;7.086;2023-03-23T04:38:05;99308.66;;;11.94;100.00
32131;BME280;18639;50.716;7.086;2023-03-23T04:40:30;99298.41;;;11.92;100.00
32131;BME280;18639;50.716;7.086;2023-03-23T04:42:55;99297.75;;;11.90;100.00
32131;BME280;18639;50.716;7.086;2023-03-23T04:45:22;99306.59;;;11.88;100.00
32131;BME280;18639;50.716;7.086;2023-03-23T04:47:49;99297.72;;;11.80;100.00
32131;BME280;18639;50.716;7.086;2023-03-23T04:50:24;99311.09;;;11.86;100.00
32131;BME280;18639;50.716;7.086;2023-03-23T04:52:51;99306.44;;;11.79;100.00
32131;BME280;18639;50.716;7.086;2023-03-23T04:55:19;99291.81;;;11.69;100.00
32131;BME280;18639;50.716;7.086;2023-03-23T04:57:46;99265.84;;;11.50;100.00
32131;BME280;18639;50.716;7.086;2023-03-23T05:00:12;99302.63;;;11.74;100.00
32131;BME280;18639;50.716;7.086;2023-03-23T05:02:39;99291.81;;;11.69;100.00
32131;BME280;18639;50.716;7.086;2023-03-23T05:05:08;99279.81;;;11.68;100.00
32131;BME280;18639;50.716;7.086;2023-03-23T05:07:36;99302.75;;;11.82;100.00
32131;BME280;18639;50.716;7.086;2023-03-23T05:10:02;99304.69;;;11.80;100.00
32131;BME280;18639;50.716;7.086;2023-03-23T05:12:27;99260.97;;;11.47;100.00
32131;BME280;18639;50.716;7.086;2023-03-23T05:14:52;99307.34;;;11.69;100.00
32131;BME280;18639;50.716;7.086;2023-03-23T05:17:18;99304.91;;;11.77;100.00
32131;BME280;18639;50.716;7.086;2023-03-23T05:19:44;99256.19;;;11.52;100.00
32131;BME280;18639;50.716;7.086;2023-03-23T05:22:12;99302.97;;;11.69;100.00
32131;BME280;18639;50.716;7.086;2023-03-23T05:24:39;99299.41;;;11.70;100.00
32131;BME280;18639;50.716;7.086;2023-03-23T05:27:05;99306.56;;;11.78;100.00
32131;BME280;18639;50.716;7.086;2023-03-23T05:29:33;99304.09;;;11.76;100.00
32131;BME280;18639;50.716;7.086;2023-03-23T05:32:01;99285.22;;;11.65;100.00
32131;BME280;18639;50.716;7.086;2023-03-23T05:34:27;99272.66;;;11.51;100.00
32131;BME280;18639;50.716;7.086;2023-03-23T05:36:54;99322.88;;;11.69;100.00
32131;BME280;18639;50.716;7.086;2023-03-23T05:39:21;99268.53;;;11.38;100.00
32131;BME280;18639;50.716;7.086;2023-03-23T05:41:46;99320.13;;;11.70;100.00
32131;BME280;18639;50.716;7.086;2023-03-23T05:44:12;99321.88;;;11.70;100.00
32131;BME280;18639;50.716;7.086;2023-03-23T05:46:38;99282.91;;;11.52;100.00
32131;BME280;18639;50.716;7.086;2023-03-23T05:49:04;99342.91;;;11.76;100.00
32131;BME280;18639;50.716;7.086;2023-03-23T05:51:29;99325.38;;;11.80;100.00
32131;BME280;18639;50.716;7.086;2023-03-23T05:53:54;99326.06;;;11.82;100.00
32131;BME280;18639;50.716;7.086;2023-03-23T05:56:20;99325.94;;;11.84;100.00
32131;BME280;18639;50.716;7.086;2023-03-23T05:58:46;99302.63;;;11.74;100.00
32131;BME280;18639;50.716;7.086;2023-03-23T06:01:11;99323.22;;;11.95;100.00
32131;BME280;18639;50.716;7.086;2023-03-23T06:03:39;99332.78;;;11.94;100.00
32131;BME280;18639;50.716;7.086;2023-03-23T06:06:04;99327.59;;;11.94;100.00
32131;BME280;18639;50.716;7.086;2023-03-23T06:08:30;99336.59;;;12.00;100.00
32131;BME280;18639;50.716;7.086;2023-03-23T06:10:55;99310.13;;;11.87;100.00
32131;BME280;18639;50.716;7.086;2023-03-23T06:13:22;99335.78;;;11.99;100.00
32131;BME280;18639;50.716;7.086;2023-03-23T06:15:47;99318.31;;;11.92;100.00
32131;BME280;18639;50.716;7.086;2023-03-23T06:18:13;99311.75;;;11.88;100.00
32131;BME280;18639;50.716;7.086;2023-03-23T06:20:39;99326.53;;;12.06;100.00
32131;BME280;18639;50.716;7.086;2023-03-23T06:23:04;99336.91;;;12.06;100.00
32131;BME280;18639;50.716;7.086;2023-03-23T06:25:30;99306.59;;;11.97;100.00
32131;BME280;18639;50.716;7.086;2023-03-23T06:27:55;99328.44;;;12.04;100.00
32131;BME280;18639;50.716;7.086;2023-03-23T06:30:21;99344.38;;;12.09;100.00
32131;BME280;18639;50.716;7.086;2023-03-23T06:32:49;99342.91;;;12.16;100.00
32131;BME280;18639;50.716;7.086;2023-03-23T06:35:15;99340.44;;;12.15;100.00
32131;BME280;18639;50.716;7.086;2023-03-23T06:37:41;99357.38;;;12.29;100.00
32131;BME280;18639;50.716;7.086;2023-03-23T06:40:08;99358.59;;;12.34;100.00
32131;BME280;18639;50.716;7.086;2023-03-23T06:42:35;99349.88;;;12.35;100.00
32131;BME280;18639;50.716;7.086;2023-03-23T06:45:01;99355.06;;;12.45;100.00
32131;BME280;18639;50.716;7.086;2023-03-23T06:47:27;99356.28;;;12.41;100.00
32131;BME280;18639;50.716;7.086;2023-03-23T06:49:56;99361.22;;;12.44;100.00
32131;BME280;18639;50.716;7.086;2023-03-23T06:52:23;99381.81;;;12.55;100.00
32131;BME280;18639;50.716;7.086;2023-03-23T06:54:49;99371.31;;;12.56;100.00
32131;BME280;18639;50.716;7.086;2023-03-23T06:57:15;99361.09;;;12.55;100.00
32131;BME280;18639;50.716;7.086;2023-03-23T06:59:40;99382.38;;;12.68;100.00
32131;BME280;18639;50.716;7.086;2023-03-23T07:02:11;99360.13;;;12.56;100.00
32131;BME280;18639;50.716;7.086;2023-03-23T07:04:37;99384.13;;;12.77;100.00
32131;BME280;18639;50.716;7.086;2023-03-23T07:07:03;99375.53;;;12.67;100.00
32131;BME280;18639;50.716;7.086;2023-03-23T07:09:29;99358.63;;;12.63;100.00
32131;BME280;18639;50.716;7.086;2023-03-23T07:11:54;99365.16;;;12.67;100.00
32131;BME280;18639;50.716;7.086;2023-03-23T07:14:19;99397.78;;;12.89;100.00
32131;BME280;18639;50.716;7.086;2023-03-23T07:16:46;99389.88;;;13.00;100.00
32131;BME280;18639;50.716;7.086;2023-03-23T07:19:12;99378.41;;;12.93;100.00
32131;BME280;18639;50.716;7.086;2023-03-23T07:21:37;99378.97;;;12.96;100.00
32131;BME280;18639;50.716;7.086;2023-03-23T07:24:03;99377.59;;;13.02;100.00
32131;BME280;18639;50.716;7.086;2023-03-23T07:26:28;99368.47;;;12.98;100.00
32131;BME280;18639;50.716;7.086;2023-03-23T07:28:53;99381.84;;;13.13;100.00
32131;BME280;18639;50.716;7.086;2023-03-23T07:31:19;99345.91;;;12.98;100.00
32131;BME280;18639;50.716;7.086;2023-03-23T07:33:45;99391.63;;;13.28;100.00
32131;BME280;18639;50.716;7.086;2023-03-23T07:36:11;99361.47;;;13.18;98.90
32131;BME280;18639;50.716;7.086;2023-03-23T07:38:37;99378.78;;;13.36;98.85
32131;BME280;18639;50.716;7.086;2023-03-23T07:41:02;99390.09;;;13.45;97.97
32131;BME280;18639;50.716;7.086;2023-03-23T07:43:28;99364.03;;;13.37;97.81
32131;BME280;18639;50.716;7.086;2023-03-23T07:45:53;99374.63;;;13.53;97.36
32131;BME280;18639;50.716;7.086;2023-03-23T07:48:20;99354.06;;;13.32;95.30
32131;BME280;18639;50.716;7.086;2023-03-23T07:50:45;99368.47;;;13.54;92.97
32131;BME280;18639;50.716;7.086;2023-03-23T07:53:11;99377.75;;;13.66;93.35
32131;BME280;18639;50.716;7.086;2023-03-23T07:55:36;99356.72;;;13.60;92.86
32131;BME280;18639;50.716;7.086;2023-03-23T07:58:02;99360.53;;;13.65;92.94
32131;BME280;18639;50.716;7.086;2023-03-23T08:00:27;99343.34;;;13.55;92.80
32131;BME280;18639;50.716;7.086;2023-03-23T08:02:56;99376.88;;;13.75;91.42
32131;BME280;18639;50.716;7.086;2023-03-23T08:05:26;99376.88;;;13.75;91.66
32131;BME280;18639;50.716;7.086;2023-03-23T08:07:53;99381.13;;;13.76;89.76
32131;BME280;18639;50.716;7.086;2023-03-23T08:10:20;99382.97;;;13.84;89.71
32131;BME280;18639;50.716;7.086;2023-03-23T08:12:51;99389.53;;;13.88;91.45
32131;BME280;18639;50.716;7.086;2023-03-23T08:15:17;99373.78;;;13.89;91.03
32131;BME280;18639;50.716;7.086;2023-03-23T08:17:43;99372.69;;;13.92;89.32
32131;BME280;18639;50.716;7.086;2023-03-23T08:20:10;99371.59;;;13.95;89.68
32131;BME280;18639;50.716;7.086;2023-03-23T08:22:45;99356.75;;;13.87;89.62
32131;BME280;18639;50.716;7.086;2023-03-23T08:25:13;99379.63;;;14.01;88.91
32131;BME280;18639;50.716;7.086;2023-03-23T08:27:39;99373.09;;;13.97;87.66
32131;BME280;18639;50.716;7.086;2023-03-23T08:30:09;99348.44;;;13.83;86.45
32131;BME280;18639;50.716;7.086;2023-03-23T08:32:35;99373.91;;;13.98;87.18
32131;BME280;18639;50.716;7.086;2023-03-23T08:35:01;99392.09;;;13.98;86.48
32131;BME280;18639;50.716;7.086;2023-03-23T08:37:27;99385.78;;;14.00;87.63
32131;BME280;18639;50.716;7.086;2023-03-23T08:39:55;99384.69;;;14.03;89.61
32131;BME280;18639;50.716;7.086;2023-03-23T08:42:23;99329.06;;;13.68;88.96
32131;BME280;18639;50.716;7.086;2023-03-23T08:44:49;99371.31;;;13.98;86.08
32131;BME280;18639;50.716;7.086;2023-03-23T08:47:14;99368.19;;;13.94;85.75
32131;BME280;18639;50.716;7.086;2023-03-23T08:49:41;99358.75;;;13.93;85.81
32131;BME280;18639;50.716;7.086;2023-03-23T08:52:07;99380.75;;;14.16;87.37
32131;BME280;18639;50.716;7.086;2023-03-23T08:54:33;99373.41;;;14.12;86.82
32131;BME280;18639;50.716;7.086;2023-03-23T08:57:02;99388.94;;;14.21;87.88
32131;BME280;18639;50.716;7.086;2023-03-23T08:59:27;99399.00;;;14.34;85.68
32131;BME280;18639;50.716;7.086;2023-03-23T09:01:53;99390.13;;;14.27;84.29
32131;BME280;18639;50.716;7.086;2023-03-23T09:04:21;99352.13;;;14.08;84.72
32131;BME280;18639;50.716;7.086;2023-03-23T09:06:47;99405.13;;;14.43;85.15
32131;BME280;18639;50.716;7.086;2023-03-23T09:09:12;99388.47;;;14.36;85.06
32131;BME280;18639;50.716;7.086;2023-03-23T09:11:38;99395.28;;;14.46;83.52
32131;BME280;18639;50.716;7.086;2023-03-23T09:14:04;99391.63;;;14.39;84.57
32131;BME280;18639;50.716;7.086;2023-03-23T09:16:34;99386.13;;;14.42;83.97
32131;BME280;18639;50.716;7.086;2023-03-23T09:19:00;99379.75;;;14.37;84.47
32131;BME280;18639;50.716;7.086;2023-03-23T09:21:27;99400.84;;;14.51;84.16
32131;BME280;18639;50.716;7.086;2023-03-23T09:23:52;99394.16;;;14.49;85.10
32131;BME280;18639;50.716;7.086;2023-03-23T09:26:18;99429.22;;;14.62;80.92
32131;BME280;18639;50.716;7.086;2023-03-23T09:28:44;99412.28;;;14.58;80.26
32131;BME280;18639;50.716;7.086;2023-03-23T09:31:10;99393.94;;;14.60;79.95
32131;BME280;18639;50.716;7.086;2023-03-23T09:33:36;99418.31;;;14.77;80.51
32131;BME280;18639;50.716;7.086;2023-03-23T09:36:02;99401.97;;;14.66;81.76
32131;BME280;18639;50.716;7.086;2023-03-23T09:38:28;99416.66;;;14.75;79.67
32131;BME280;18639;50.716;7.086;2023-03-23T09:44:11;99412.75;;;14.89;81.58
32131;BME280;18639;50.716;7.086;2023-03-23T09:49:39;99421.88;;;15.11;81.31
32131;BME280;18639;50.716;7.086;2023-03-23T09:52:12;99444.91;;;15.24;80.32
32131;BME280;18639;50.716;7.086;2023-03-23T09:54:41;99443.03;;;15.34;81.17
32131;BME280;18639;50.716;7.086;2023-03-23T09:59:56;99439.09;;;15.30;79.66
32131;BME280;18639;50.716;7.086;2023-03-23T10:02:51;99436.84;;;15.35;81.31
32131;BME280;18639;50.716;7.086;2023-03-23T10:05:33;99431.34;;;15.38;81.75
32131;BME280;18639;50.716;7.086;2023-03-23T10:08:00;99426.53;;;15.25;81.59
32131;BME280;18639;50.716;7.086;2023-03-23T10:10:36;99417.41;;;15.21;82.06
32131;BME280;18639;50.716;7.086;2023-03-23T10:15:45;99404.19;;;14.97;82.79
32131;BME280;18639;50.716;7.086;2023-03-23T10:18:29;99428.94;;;15.01;83.80
32131;BME280;18639;50.716;7.086;2023-03-23T10:21:00;99424.34;;;14.95;84.15
32131;BME280;18639;50.716;7.086;2023-03-23T10:23:39;99437.19;;;14.96;83.08
32131;BME280;18639;50.716;7.086;2023-03-23T10:27:07;99428.13;;;15.00;84.33
32131;BME280;18639;50.716;7.086;2023-03-23T10:29:17;99434.72;;;15.12;84.59
32131;BME280;18639;50.716;7.086;2023-03-23T10:32:00;99411.97;;;14.97;83.40
32131;BME280;18639;50.716;7.086;2023-03-23T10:40:18;99444.38;;;15.20;84.97
32131;BME280;18639;50.716;7.086;2023-03-23T10:42:37;99447.03;;;15.28;83.45
32131;BME280;18639;50.716;7.086;2023-03-23T10:45:20;99433.06;;;15.29;85.26
32131;BME280;18639;50.716;7.086;2023-03-23T10:50:32;99449.97;;;15.25;85.41
32131;BME280;18639;50.716;7.086;2023-03-23T10:53:00;99455.41;;;15.14;85.56
32131;BME280;18639;50.716;7.086;2023-03-23T10:55:38;99453.75;;;15.13;87.62
32131;BME280;18639;50.716;7.086;2023-03-23T10:58:10;99453.69;;;15.05;88.11
32131;BME280;18639;50.716;7.086;2023-03-23T11:00:42;99450.34;;;14.95;87.68
32131;BME280;18639;50.716;7.086;2023-03-23T11:05:53;99454.06;;;14.92;90.08
32131;BME280;18639;50.716;7.086;2023-03-23T11:08:24;99439.13;;;14.94;90.52
32131;BME280;18639;50.716;7.086;2023-03-23T11:13:21;99453.53;;;15.24;90.69
32131;BME280;18639;50.716;7.086;2023-03-23T11:15:48;99452.19;;;15.38;89.01
32131;BME280;18639;50.716;7.086;2023-03-23T11:18:36;99439.06;;;15.47;87.65
32131;BME280;18639;50.716;7.086;2023-03-23T11:21:03;99440.84;;;15.47;85.98
32131;BME280;18639;50.716;7.086;2023-03-23T11:23:34;99445.38;;;15.63;88.34
32131;BME280;18639;50.716;7.086;2023-03-23T11:28:38;99441.59;;;15.57;83.50
32131;BME280;18639;50.716;7.086;2023-03-23T11:31:06;99415.09;;;15.44;84.32
32131;BME280;18639;50.716;7.086;2023-03-23T11:33:39;99448.31;;;15.60;83.80
32131;BME280;18639;50.716;7.086;2023-03-23T11:36:06;99418.16;;;15.57;84.43
32131;BME280;18639;50.716;7.086;2023-03-23T11:38:33;99428.22;;;15.52;81.78
32131;BME280;18639;50.716;7.086;2023-03-23T11:40:59;99405.34;;;15.64;80.85
32131;BME280;18639;50.716;7.086;2023-03-23T11:43:25;99416.56;;;15.90;81.66
32131;BME280;18639;50.716;7.086;2023-03-23T11:46:18;99439.75;;;16.09;81.76
32131;BME280;18639;50.716;7.086;2023-03-23T11:48:54;99429.38;;;16.17;77.61
32131;BME280;18639;50.716;7.086;2023-03-23T11:51:42;99421.56;;;16.17;76.94
32131;BME280;18639;50.716;7.086;2023-03-23T11:56:38;99436.84;;;16.12;76.77
32131;BME280;18639;50.716;7.086;2023-03-23T11:59:13;99425.06;;;16.00;76.57
32131;BME280;18639;50.716;7.086;2023-03-23T12:06:59;99436.09;;;15.86;76.60
32131;BME280;18639;50.716;7.086;2023-03-23T12:09:43;99447.00;;;15.89;76.73
32131;BME280;18639;50.716;7.086;2023-03-23T12:12:16;99422.69;;;15.81;77.26
32131;BME280;18639;50.716;7.086;2023-03-23T12:18:18;99432.56;;;16.03;77.10
32131;BME280;18639;50.716;7.086;2023-03-23T12:21:04;99432.25;;;16.06;78.27
32131;BME280;18639;50.716;7.086;2023-03-23T12:29:19;99425.81;;;16.18;73.01
32131;BME280;18639;50.716;7.086;2023-03-23T12:34:31;99446.72;;;16.34;73.54
32131;BME280;18639;50.716;7.086;2023-03-23T12:40:04;99434.25;;;16.12;71.84
32131;BME280;18639;50.716;7.086;2023-03-23T12:42:50;99425.13;;;16.16;72.63
32131;BME280;18639;50.716;7.086;2023-03-23T12:48:10;99425.28;;;16.15;74.02
32131;BME280;18639;50.716;7.086;2023-03-23T12:53:53;99423.47;;;16.07;73.18
32131;BME280;18639;50.716;7.086;2023-03-23T12:56:34;99374.47;;;15.77;72.93
32131;BME280;18639;50.716;7.086;2023-03-23T12:59:10;99406.44;;;15.87;73.20
32131;BME280;18639;50.716;7.086;2023-03-23T13:01:41;99424.38;;;15.90;74.15
32131;BME280;18639;50.716;7.086;2023-03-23T13:04:13;99411.94;;;15.76;73.93
32131;BME280;18639;50.716;7.086;2023-03-23T13:06:41;99440.47;;;15.85;74.77
32131;BME280;18639;50.716;7.086;2023-03-23T13:11:40;99446.16;;;15.81;75.66
32131;BME280;18639;50.716;7.086;2023-03-23T13:17:35;99453.69;;;15.66;74.93
32131;BME280;18639;50.716;7.086;2023-03-23T13:20:32;99451.63;;;15.70;75.44
32131;BME280;18639;50.716;7.086;2023-03-23T13:23:21;99427.81;;;15.65;75.84
32131;BME280;18639;50.716;7.086;2023-03-23T13:26:02;99419.78;;;15.84;75.82
32131;BME280;18639;50.716;7.086;2023-03-23T13:28:47;99410.53;;;15.97;76.16
32131;BME280;18639;50.716;7.086;2023-03-23T13:31:22;99412.06;;;16.08;74.34
32131;BME280;18639;50.716;7.086;2023-03-23T13:34:20;99363.50;;;15.99;73.00
32131;BME280;18639;50.716;7.086;2023-03-23T13:39:23;99374.34;;;16.28;72.36
32131;BME280;18639;50.716;7.086;2023-03-23T13:47:14;99406.66;;;16.52;72.83
32131;BME280;18639;50.716;7.086;2023-03-23T13:50:09;99421.41;;;16.69;71.03
32131;BME280;18639;50.716;7.086;2023-03-23T13:57:53;99404.38;;;16.49;72.25
32131;BME280;18639;50.716;7.086;2023-03-23T14:03:25;99395.22;;;16.36;69.94
32131;BME280;18639;50.716;7.086;2023-03-23T14:08:43;99424.97;;;16.60;72.83
32131;BME280;18639;50.716;7.086;2023-03-23T14:11:12;99413.84;;;16.58;70.08
32131;BME280;18639;50.716;7.086;2023-03-23T14:16:19;99411.88;;;16.52;71.80
32131;BME280;18639;50.716;7.086;2023-03-23T14:19:15;99427.25;;;16.63;72.23
32131;BME280;18639;50.716;7.086;2023-03-23T14:21:52;99411.88;;;16.52;73.84
32131;BME280;18639;50.716;7.086;2023-03-23T14:24:26;99407.28;;;16.37;71.46
32131;BME280;18639;50.716;7.086;2023-03-23T14:27:07;99418.69;;;16.36;73.04
32131;BME280;18639;50.716;7.086;2023-03-23T14:29:33;99399.25;;;16.23;73.73
32131;BME280;18639;50.716;7.086;2023-03-23T14:31:59;99405.75;;;16.19;75.12
32131;BME280;18639;50.716;7.086;2023-03-23T14:34:26;99394.81;;;16.07;74.99
32131;BME280;18639;50.716;7.086;2023-03-23T14:36:54;99410.78;;;16.12;74.92
32131;BME280;18639;50.716;7.086;2023-03-23T14:39:35;99408.47;;;16.01;74.32
32131;BME280;18639;50.716;7.086;2023-03-23T14:42:11;99410.41;;;15.99;76.39
32131;BME280;18639;50.716;7.086;2023-03-23T14:44:42;99393.41;;;15.87;76.70
32131;BME280;18639;50.716;7.086;2023-03-23T14:47:25;99395.84;;;15.80;77.47
32131;BME280;18639;50.716;7.086;2023-03-23T14:49:54;99370.53;;;15.65;77.47
32131;BME280;18639;50.716;7.086;2023-03-23T14:52:22;99394.50;;;15.76;78.68
32131;BME280;18639;50.716;7.086;2023-03-23T14:54:48;99397.81;;;15.86;79.13